»·PEaware :: N402ER KLGB-KVGT

N402ER :: KLGB-KVGT

FLIGHT INFORMATION

Flight Status: Arrived
Operator: Privately registered:
United States
More flights under this callsign
Pilot: Anonymous 18083 (18083)
Aircraft: CESSNA 172 SKYHAWK
(C172)
More flights by this aircraft type
Origin: KLGB Long Beach
United States
Destination: KVGT North Las Vegas
United States
More flights between these airports :: More routes between these airports
Route: +
File this flight plan on PilotEdge
Remarks:
Altitude:
(Current/Filed)
7,500ft
Speed:
(Current/Filed)
0kts
Departed: 01-Aug-20 06:01 PM
Arrived: 01-Aug-20 07:55 PM
Distance/Time
Traveled:
204nm/1:54
Distance/Time
To Go:
Arrived

Flight Plot

Page will automatically refresh every two minutes.


Map Options




Map Legend


Flown Route
Filed Route
Departure Airport
Arrival Airport
Navaid (VOR, NDB)
Fix

Horizontal Profiles

Position Reports

Time Latitude Longitude Heading Altitude Ground
Speed
01-Aug-20 17:50 33.812233 -118.154389 89 43ft 0kts
01-Aug-20 17:51 33.812401 -118.154233 2 43ft 3kts
01-Aug-20 17:52 33.813116 -118.153359 90 40ft 11kts
01-Aug-20 17:53 33.813115 -118.148943 85 37ft 13kts
01-Aug-20 17:54 33.813094 -118.147985 42 36ft 0kts
01-Aug-20 17:55 33.813094 -118.147986 42 36ft 0kts
01-Aug-20 17:56 33.813094 -118.147986 42 36ft 0kts
01-Aug-20 17:57 33.813094 -118.147986 42 36ft 0kts
01-Aug-20 17:58 33.813094 -118.147986 42 36ft 0kts
01-Aug-20 17:59 33.813123 -118.147982 347 36ft 0kts
01-Aug-20 18:00 33.813446 -118.148436 317 37ft 0kts
01-Aug-20 18:00 33.813906 -118.152513 269 40ft 61kts
01-Aug-20 18:02 33.806633 -118.171263 175 686ft 78kts
01-Aug-20 18:03 33.787469 -118.161017 87 1290ft 97kts
01-Aug-20 18:04 33.800891 -118.134092 57 1957ft 93kts
01-Aug-20 18:04 33.812301 -118.114133 58 2504ft 85kts
01-Aug-20 18:06 33.828125 -118.084758 51 3103ft 94kts
01-Aug-20 18:07 33.841653 -118.057031 71 3608ft 99kts
01-Aug-20 18:07 33.847794 -118.030406 71 4022ft 99kts
01-Aug-20 18:08 33.855466 -117.998608 69 4519ft 98kts
01-Aug-20 18:09 33.863483 -117.965761 70 4834ft 114kts
01-Aug-20 18:10 33.872808 -117.926933 70 4941ft 123kts
01-Aug-20 18:11 33.882302 -117.887456 71 5039ft 122kts
01-Aug-20 18:12 33.886720 -117.846642 79 5136ft 122kts
01-Aug-20 18:13 33.890806 -117.806712 78 5330ft 120kts
01-Aug-20 18:14 33.894903 -117.766172 78 5530ft 123kts
01-Aug-20 18:15 33.899035 -117.724964 79 5730ft 124kts
01-Aug-20 18:16 33.903182 -117.683444 79 5932ft 125kts
01-Aug-20 18:17 33.907355 -117.641584 80 6136ft 126kts
01-Aug-20 18:18 33.911520 -117.599607 81 6345ft 127kts
01-Aug-20 18:19 33.915698 -117.557414 81 6556ft 127kts
01-Aug-20 18:20 33.929054 -117.523243 13 6767ft 111kts
01-Aug-20 18:21 33.957211 -117.506847 16 6974ft 112kts
01-Aug-20 18:22 33.985547 -117.489888 17 7191ft 116kts
01-Aug-20 18:23 34.015000 -117.472215 17 7410ft 119kts
01-Aug-20 18:24 34.045404 -117.453975 17 7503ft 126kts
01-Aug-20 18:25 34.076832 -117.434951 18 7504ft 126kts
01-Aug-20 18:26 34.108954 -117.432015 341 7636ft 113kts
01-Aug-20 18:27 34.139183 -117.436892 341 7843ft 108kts
01-Aug-20 18:28 34.169005 -117.441512 341 8055ft 108kts
01-Aug-20 18:29 34.198769 -117.446043 341 8269ft 107kts
01-Aug-20 18:30 34.228271 -117.450512 341 8481ft 106kts
01-Aug-20 18:31 34.259125 -117.455250 342 8519ft 115kts
01-Aug-20 18:32 34.291040 -117.460005 342 8531ft 116kts
01-Aug-20 18:33 34.323033 -117.446243 25 8483ft 133kts
01-Aug-20 18:34 34.351788 -117.417863 45 8395ft 135kts
01-Aug-20 18:35 34.376860 -117.383599 44 8310ft 136kts
01-Aug-20 18:36 34.402161 -117.349174 45 8224ft 136kts
01-Aug-20 18:37 34.427336 -117.314893 45 8114ft 136kts
01-Aug-20 18:38 34.452538 -117.280548 44 8005ft 137kts
01-Aug-20 18:39 34.477909 -117.245941 44 7898ft 137kts
01-Aug-20 18:40 34.503237 -117.211353 44 7792ft 137kts
01-Aug-20 18:41 34.528569 -117.176730 44 7687ft 137kts
01-Aug-20 18:42 34.554018 -117.141914 44 7584ft 137kts
01-Aug-20 18:43 34.579324 -117.107202 44 7496ft 136kts
01-Aug-20 18:44 34.604286 -117.073026 44 7478ft 134kts
01-Aug-20 18:45 34.628980 -117.039151 43 7462ft 133kts
01-Aug-20 18:46 34.653282 -117.005753 43 7445ft 131kts
01-Aug-20 18:47 34.677401 -116.972584 43 7429ft 130kts
01-Aug-20 18:48 34.701395 -116.939560 43 7412ft 129kts
01-Aug-20 18:49 34.724368 -116.907961 42 7526ft 127kts
01-Aug-20 18:50 34.747865 -116.875536 42 7509ft 127kts
01-Aug-20 18:51 34.771192 -116.843308 42 7509ft 126kts
01-Aug-20 18:52 34.794451 -116.811177 42 7510ft 126kts
01-Aug-20 18:53 34.817756 -116.778948 43 7509ft 126kts
01-Aug-20 18:54 34.841005 -116.746775 42 7510ft 126kts
01-Aug-20 18:55 34.864217 -116.714616 43 7511ft 126kts
01-Aug-20 18:56 34.887505 -116.682323 43 7512ft 126kts
01-Aug-20 18:57 34.910750 -116.650065 43 7508ft 127kts
01-Aug-20 18:58 34.934143 -116.617571 43 7510ft 128kts
01-Aug-20 18:59 34.957731 -116.584776 44 7514ft 128kts
01-Aug-20 19:00 34.975973 -116.546821 58 7516ft 130kts
01-Aug-20 19:01 34.993705 -116.507911 59 7521ft 131kts
01-Aug-20 19:02 35.011241 -116.468587 60 7527ft 132kts
01-Aug-20 19:03 35.028849 -116.428922 61 7534ft 133kts
01-Aug-20 19:04 35.046498 -116.389118 62 7540ft 134kts
01-Aug-20 19:05 35.064301 -116.348909 63 7539ft 134kts
01-Aug-20 19:06 35.081956 -116.309008 63 7537ft 133kts
01-Aug-20 19:07 35.099600 -116.269081 63 7537ft 133kts
01-Aug-20 19:08 35.117080 -116.229475 63 7534ft 132kts
01-Aug-20 19:09 35.134454 -116.190067 63 7534ft 131kts
01-Aug-20 19:10 35.151789 -116.150696 63 7535ft 131kts
01-Aug-20 19:11 35.169150 -116.111221 63 7535ft 131kts
01-Aug-20 19:12 35.186489 -116.071751 63 7535ft 131kts
01-Aug-20 19:13 35.203842 -116.032204 63 7535ft 133kts
01-Aug-20 19:14 35.221321 -115.992317 63 7535ft 133kts
01-Aug-20 19:15 35.238782 -115.952427 63 7535ft 132kts
01-Aug-20 19:16 35.256170 -115.912656 63 7536ft 133kts
01-Aug-20 19:17 35.273609 -115.872723 63 7534ft 133kts
01-Aug-20 19:18 35.290976 -115.832905 63 7533ft 133kts
01-Aug-20 19:19 35.308404 -115.792901 64 7532ft 133kts
01-Aug-20 19:20 35.332159 -115.758343 47 7529ft 133kts
01-Aug-20 19:21 35.357415 -115.724708 47 7529ft 134kts
01-Aug-20 19:22 35.382328 -115.691486 47 7528ft 131kts
01-Aug-20 19:23 35.407291 -115.658214 48 7530ft 134kts
01-Aug-20 19:24 35.432512 -115.624533 47 7526ft 133kts
01-Aug-20 19:25 35.457474 -115.591175 48 7530ft 132kts
01-Aug-20 19:26 35.482577 -115.557590 47 7528ft 133kts
01-Aug-20 19:27 35.507631 -115.524038 48 7530ft 133kts
01-Aug-20 19:28 35.532701 -115.490726 46 7527ft 132kts
01-Aug-20 19:29 35.557799 -115.457407 47 7524ft 133kts
01-Aug-20 19:30 35.583028 -115.423854 47 7526ft 133kts
01-Aug-20 19:31 35.608137 -115.390427 47 7532ft 133kts
01-Aug-20 19:32 35.639356 -115.375053 350 7526ft 127kts
01-Aug-20 19:33 35.674424 -115.376511 350 7578ft 125kts
01-Aug-20 19:34 35.709982 -115.378010 350 7575ft 129kts
01-Aug-20 19:35 35.745574 -115.379594 349 7660ft 124kts
01-Aug-20 19:36 35.779318 -115.381164 350 7871ft 123kts
01-Aug-20 19:37 35.813916 -115.382732 351 8100ft 124kts
01-Aug-20 19:38 35.848153 -115.384251 350 8315ft 122kts
01-Aug-20 19:39 35.882110 -115.385793 350 8533ft 121kts
01-Aug-20 19:40 35.916981 -115.386965 353 8554ft 127kts
01-Aug-20 19:41 35.952371 -115.386488 353 8547ft 127kts
01-Aug-20 19:42 35.987692 -115.386266 353 8541ft 126kts
01-Aug-20 19:43 36.022833 -115.386068 354 8534ft 126kts
01-Aug-20 19:44 36.058115 -115.384981 7 8526ft 129kts
01-Aug-20 19:46 36.095779 -115.375658 7 8022ft 149kts
01-Aug-20 19:47 36.136121 -115.365683 7 7225ft 147kts
01-Aug-20 19:48 36.175103 -115.350302 21 6436ft 148kts
01-Aug-20 19:49 36.213032 -115.329165 22 5632ft 150kts
01-Aug-20 19:50 36.233891 -115.294465 115 4807ft 138kts
01-Aug-20 19:51 36.223132 -115.248556 106 3952ft 140kts
01-Aug-20 19:52 36.227680 -115.201857 73 3094ft 133kts
01-Aug-20 19:53 36.229054 -115.173916 190 2589ft 60kts
01-Aug-20 19:54 36.213899 -115.180434 256 2334ft 63kts
01-Aug-20 19:55 36.213524 -115.191838 270 2186ft 21kts
01-Aug-20 19:56 36.213251 -115.192647 237 2187ft 0kts
01-Aug-20 19:57 36.213251 -115.192647 237 2187ft 0kts
01-Aug-20 19:58 36.212343 -115.194481 239 2190ft 16kts
01-Aug-20 19:59 36.210145 -115.198887 221 2197ft 13kts

Navigation Log

Ident Type
Flight plan parsing failed, navigation log unavailable